createdAt,value
2019-05-05T01:21:14.958Z,849.37
2019-05-05T01:22:14.365Z,1372.50
2019-05-05T01:23:15.050Z,1839.37
2019-05-05T01:24:14.385Z,2171.25
2019-05-05T01:25:14.829Z,2317.50
2019-05-05T01:26:14.357Z,2143.12
2019-05-05T01:27:14.757Z,1974.37
2019-05-05T01:28:14.316Z,1968.75
2019-05-05T01:29:14.668Z,1929.37
2019-05-05T01:30:15.107Z,1839.37
2019-05-05T01:31:14.640Z,1749.37
2019-05-05T01:32:15.099Z,1693.12
2019-05-05T01:33:14.536Z,1710.00
2019-05-05T01:34:14.955Z,1710.00
2019-05-05T01:35:14.419Z,1732.50
2019-05-05T01:36:14.891Z,1771.87
2019-05-05T01:37:15.057Z,1805.62
2019-05-05T01:38:14.207Z,1811.25
2019-05-05T01:39:14.665Z,1850.62
2019-05-05T01:40:14.188Z,1884.37
2019-05-05T01:41:14.728Z,1839.37
2019-05-05T01:42:14.296Z,1845.00
2019-05-05T01:43:14.632Z,1940.62
2019-05-05T01:44:12.846Z,2019.37
2019-05-05T01:45:14.828Z,2041.87
2019-05-05T01:46:14.292Z,2086.87
2019-05-05T01:47:14.619Z,2171.25
2019-05-05T01:48:14.248Z,2300.62
2019-05-05T01:49:14.632Z,2385.00
2019-05-05T01:50:18.224Z,2520.00
2019-05-05T01:51:37.580Z,2700.00
2019-05-05T01:52:37.571Z,2733.75
2019-05-05T01:53:37.963Z,2593.12
2019-05-05T01:54:37.547Z,2396.25
2019-05-05T01:55:37.539Z,2345.62
2019-05-05T01:56:37.532Z,2413.12
2019-05-05T01:57:37.519Z,2531.25
2019-05-05T01:58:37.511Z,2728.12
2019-05-05T01:59:37.549Z,2981.25
2019-05-05T02:00:37.495Z,3223.12
2019-05-05T02:01:37.479Z,3330.00
2019-05-05T02:02:37.478Z,3245.62
2019-05-05T02:03:37.462Z,2992.50
2019-05-05T02:04:37.450Z,2733.75
2019-05-05T02:05:37.492Z,2497.50
2019-05-05T02:06:37.427Z,2317.50
2019-05-05T02:07:37.426Z,2193.75
2019-05-05T02:08:37.415Z,2165.62
2019-05-05T02:09:37.402Z,2171.25
2019-05-05T02:10:37.390Z,2188.12
2019-05-05T02:11:37.532Z,2306.25
2019-05-05T02:12:37.371Z,2458.12
2019-05-05T02:13:37.359Z,2525.62
2019-05-05T02:14:37.356Z,2514.37
2019-05-05T02:15:37.345Z,2463.75
2019-05-05T02:16:37.331Z,2435.62
2019-05-05T02:17:37.371Z,2368.12
2019-05-05T02:18:37.319Z,2238.75
2019-05-05T02:19:37.299Z,2148.75
2019-05-05T02:20:37.292Z,2081.25
2019-05-05T02:21:37.281Z,2036.25
2019-05-05T02:22:37.271Z,2013.75
2019-05-05T02:23:37.312Z,1991.25
2019-05-05T02:24:37.254Z,2008.12
2019-05-05T02:25:37.243Z,2092.50
2019-05-05T02:26:37.226Z,2143.12
2019-05-05T02:27:37.222Z,2109.37
2019-05-05T02:28:37.208Z,2081.25
2019-05-05T02:29:37.349Z,2075.62
2019-05-05T02:30:37.192Z,2160.00
2019-05-05T02:31:37.183Z,2216.25
2019-05-05T02:32:37.168Z,2188.12
2019-05-05T02:33:37.158Z,2171.25
2019-05-05T02:34:37.154Z,2171.25
2019-05-05T02:35:37.190Z,2165.62
2019-05-05T02:36:37.132Z,2148.75
2019-05-05T02:37:37.126Z,2115.00
2019-05-05T02:38:37.113Z,2092.50
2019-05-05T02:39:39.328Z,2092.50
2019-05-05T02:41:04.780Z,2036.25
2019-05-05T02:42:01.938Z,2030.62
2019-05-05T02:43:01.929Z,2058.75
2019-05-05T02:44:04.872Z,2025.00
2019-05-05T02:45:05.021Z,1985.62
2019-05-05T02:46:02.059Z,1963.12
2019-05-05T02:47:04.588Z,1929.37
2019-05-05T02:48:05.117Z,1895.62
2019-05-05T02:49:05.014Z,1906.87
2019-05-05T02:50:04.985Z,1946.25
2019-05-05T02:51:02.999Z,1951.87
2019-05-05T02:52:04.707Z,1951.87
2019-05-05T02:53:03.916Z,1946.25
2019-05-05T02:54:01.828Z,1923.75
2019-05-05T02:55:03.966Z,1816.87
2019-05-05T02:56:04.019Z,1788.75
2019-05-05T02:57:01.797Z,1755.00
2019-05-05T02:58:03.739Z,1726.87
2019-05-05T02:59:01.787Z,1760.62
2019-05-05T03:00:01.769Z,1850.62
2019-05-05T03:01:01.755Z,1940.62
2019-05-05T03:02:01.751Z,2008.12
2019-05-05T03:03:01.742Z,2081.25
2019-05-05T03:04:03.785Z,2075.62
2019-05-05T03:05:01.719Z,1963.12
2019-05-05T03:06:01.714Z,1918.12
2019-05-05T03:07:01.705Z,1918.12
2019-05-05T03:08:01.698Z,1935.00
2019-05-05T03:09:01.681Z,1884.37
2019-05-05T03:10:03.601Z,1760.62
2019-05-05T03:11:03.794Z,1698.75
2019-05-05T03:12:01.651Z,1766.25
2019-05-05T03:13:01.648Z,1833.75
2019-05-05T03:14:01.633Z,1811.25
2019-05-05T03:15:04.002Z,1816.87
2019-05-05T03:16:03.644Z,1822.50
2019-05-05T03:17:01.604Z,1800.00
2019-05-05T03:18:01.598Z,1800.00
2019-05-05T03:19:03.453Z,1845.00
2019-05-05T03:20:01.580Z,1895.62
2019-05-05T03:21:06.715Z,1856.25
2019-05-05T03:22:03.590Z,1800.00
2019-05-05T03:23:01.549Z,1771.87
2019-05-05T03:24:03.598Z,1777.50
2019-05-05T03:25:01.528Z,1715.62
2019-05-05T03:26:01.517Z,1620.00
2019-05-05T03:27:03.686Z,1518.75
2019-05-05T03:28:01.604Z,1490.62
2019-05-05T03:29:01.490Z,1620.00
2019-05-05T03:30:04.710Z,1783.12
2019-05-05T03:31:04.774Z,1760.62
2019-05-05T03:32:01.465Z,1681.87
2019-05-05T03:33:05.098Z,1681.87
2019-05-05T03:34:01.507Z,1732.50
2019-05-05T03:35:01.449Z,1811.25
2019-05-05T03:36:03.431Z,1856.25
2019-05-05T03:37:01.419Z,1828.12
2019-05-05T03:38:01.403Z,1749.37
2019-05-05T03:39:01.402Z,1614.37
2019-05-05T03:40:01.595Z,1546.87
2019-05-05T03:41:03.506Z,1620.00
2019-05-05T03:42:03.526Z,1631.25
2019-05-05T03:43:01.360Z,1558.12
2019-05-05T03:44:01.350Z,1603.12
2019-05-05T03:45:01.339Z,1665.00
2019-05-05T03:46:01.379Z,1681.87
2019-05-05T03:47:03.458Z,1653.75
2019-05-05T03:48:01.312Z,1586.25
2019-05-05T03:49:01.301Z,1591.87
2019-05-05T03:50:01.293Z,1558.12
2019-05-05T03:51:01.289Z,1473.75
2019-05-05T03:52:01.379Z,1417.50
2019-05-05T03:53:01.270Z,1428.75
2019-05-05T03:54:01.259Z,1479.37
2019-05-05T03:55:03.635Z,1575.00
2019-05-05T03:56:01.240Z,1631.25
2019-05-05T03:57:01.229Z,1552.50
2019-05-05T03:58:01.369Z,1535.62
2019-05-05T03:59:01.208Z,1513.12
2019-05-05T04:00:01.195Z,1389.37
2019-05-05T04:01:01.195Z,1316.25
2019-05-05T04:02:01.180Z,1288.12
2019-05-05T04:03:01.172Z,1181.25
2019-05-05T04:04:03.351Z,928.12
2019-05-05T04:05:01.148Z,630.00
2019-05-05T04:06:01.143Z,506.25
2019-05-05T04:07:01.133Z,483.75
2019-05-05T04:08:01.123Z,466.87
2019-05-05T04:09:01.113Z,461.25
2019-05-05T04:10:03.585Z,450.00
2019-05-05T04:11:01.097Z,444.37
2019-05-05T04:12:01.084Z,438.75
2019-05-05T04:13:01.077Z,433.12
2019-05-05T04:14:01.067Z,433.12
2019-05-05T04:15:01.060Z,427.50
2019-05-05T04:16:01.296Z,421.87
2019-05-05T04:17:01.039Z,416.25
2019-05-05T04:18:01.026Z,410.62
2019-05-05T04:19:01.016Z,416.25
2019-05-05T04:20:01.006Z,405.00
2019-05-05T04:21:00.997Z,405.00
2019-05-05T04:22:01.039Z,399.37
2019-05-05T04:23:00.980Z,393.75
2019-05-05T04:24:00.971Z,393.75
2019-05-05T04:25:00.959Z,393.75
2019-05-05T04:26:00.952Z,388.12
2019-05-05T04:27:00.940Z,388.12
2019-05-05T04:28:01.031Z,382.50
2019-05-05T04:29:03.254Z,382.50
2019-05-05T04:30:00.918Z,376.87
2019-05-05T04:31:00.899Z,376.87
2019-05-05T04:32:00.889Z,371.25
2019-05-05T04:33:00.886Z,365.62
2019-05-05T04:34:01.020Z,365.62
2019-05-05T04:35:00.861Z,365.62
2019-05-05T04:36:00.848Z,360.00
2019-05-05T04:37:00.840Z,360.00
2019-05-05T04:38:00.831Z,354.37
2019-05-05T04:39:00.817Z,354.37
2019-05-05T04:40:00.910Z,354.37
2019-05-05T04:41:00.798Z,348.75
2019-05-05T04:42:00.788Z,348.75
2019-05-05T04:43:00.777Z,343.12
2019-05-05T04:44:00.768Z,343.12
2019-05-05T04:45:00.762Z,337.50
2019-05-05T04:46:00.801Z,337.50
2019-05-05T04:47:00.740Z,337.50
2019-05-05T04:48:00.729Z,331.87
2019-05-05T04:49:00.720Z,331.87
2019-05-05T04:50:00.706Z,326.25
2019-05-05T04:51:00.698Z,326.25
2019-05-05T04:52:00.937Z,326.25
2019-05-05T04:53:00.681Z,320.62
2019-05-05T04:54:00.669Z,320.62
2019-05-05T04:55:00.663Z,315.00
2019-05-05T04:56:00.646Z,315.00
2019-05-05T04:57:00.636Z,315.00
2019-05-05T04:58:00.680Z,309.37
2019-05-05T04:59:00.618Z,309.37
2019-05-05T05:00:00.612Z,309.37
2019-05-05T05:01:00.597Z,303.75
2019-05-05T05:02:00.590Z,303.75
2019-05-05T05:03:00.577Z,303.75
2019-05-05T05:04:00.672Z,298.12
2019-05-05T05:05:00.562Z,298.12
2019-05-05T05:06:00.547Z,298.12
2019-05-05T05:07:00.552Z,292.50
2019-05-05T05:08:00.530Z,292.50
2019-05-05T05:09:00.526Z,292.50
2019-05-05T05:10:00.664Z,286.87
2019-05-05T05:11:00.502Z,286.87
2019-05-05T05:12:00.487Z,286.87
2019-05-05T05:13:00.478Z,281.25
2019-05-05T05:14:00.471Z,281.25
2019-05-05T05:15:00.463Z,275.62
2019-05-05T05:16:00.507Z,275.62
2019-05-05T05:17:00.443Z,275.62
2019-05-05T05:18:00.433Z,270.00
2019-05-05T05:19:00.428Z,270.00
2019-05-05T05:20:00.412Z,270.00
2019-05-05T05:21:00.408Z,264.37
2019-05-05T05:22:02.128Z,264.37
2019-05-05T05:23:00.387Z,264.37
2019-05-05T05:24:00.377Z,258.75
2019-05-05T05:25:00.362Z,258.75
2019-05-05T05:26:00.355Z,258.75
2019-05-05T05:27:00.344Z,253.12
2019-05-05T05:28:00.482Z,253.12
2019-05-05T05:29:00.327Z,253.12
2019-05-05T05:30:00.312Z,247.50
2019-05-05T05:31:00.302Z,247.50
2019-05-05T05:32:00.293Z,241.87
2019-05-05T05:33:00.283Z,241.87
2019-05-05T05:34:00.325Z,241.87
2019-05-05T05:35:00.263Z,236.25
2019-05-05T05:36:00.249Z,230.62
2019-05-05T05:37:00.247Z,219.37
2019-05-05T05:38:00.235Z,208.12
2019-05-05T05:39:00.221Z,202.50
2019-05-05T05:40:00.261Z,202.50
2019-05-05T05:41:00.200Z,202.50
2019-05-05T05:42:00.194Z,202.50
2019-05-05T05:43:00.181Z,196.87
2019-05-05T05:44:00.168Z,196.87
2019-05-05T05:45:00.162Z,196.87
2019-05-05T05:46:00.301Z,196.87
2019-05-05T05:47:00.140Z,196.87
2019-05-05T05:48:00.128Z,191.25
2019-05-05T05:49:00.119Z,191.25
2019-05-05T05:50:00.111Z,191.25
2019-05-05T05:51:00.104Z,191.25
2019-05-05T05:53:00.128Z,185.62
2019-05-05T05:54:00.070Z,185.62
2019-05-05T05:55:00.065Z,185.62
2019-05-05T05:56:00.052Z,185.62
2019-05-05T05:57:00.039Z,185.62
2019-05-05T05:58:00.030Z,185.62
2019-05-05T05:59:00.067Z,185.62
2019-05-05T06:00:00.013Z,185.62
2019-05-05T06:01:00.000Z,185.62
2019-05-05T06:02:09.897Z,185.62
2019-05-05T06:03:24.802Z,180.00
2019-05-05T06:04:24.938Z,180.00
2019-05-05T06:05:24.772Z,180.00
2019-05-05T06:06:24.775Z,180.00
2019-05-05T06:07:24.761Z,180.00
2019-05-05T06:08:24.742Z,180.00
2019-05-05T06:09:24.730Z,180.00
2019-05-05T06:10:27.305Z,180.00
2019-05-05T06:11:24.709Z,180.00
2019-05-05T06:12:24.713Z,180.00
2019-05-05T06:13:24.694Z,180.00
2019-05-05T06:14:24.775Z,180.00
2019-05-05T06:15:24.674Z,180.00
2019-05-05T06:16:24.758Z,180.00
2019-05-05T06:17:24.650Z,180.00
2019-05-05T06:18:24.636Z,180.00
2019-05-05T06:19:24.733Z,180.00
2019-05-05T06:20:24.622Z,180.00
2019-05-05T06:21:24.607Z,174.37
2019-05-05T06:22:29.221Z,174.37
2019-05-05T06:23:49.399Z,174.37
2019-05-05T06:24:49.389Z,174.37
2019-05-05T06:25:49.378Z,174.37
2019-05-05T06:26:49.367Z,174.37
2019-05-05T06:27:49.409Z,174.37
2019-05-05T06:28:49.348Z,174.37
2019-05-05T06:29:49.343Z,174.37
2019-05-05T06:30:49.325Z,174.37
2019-05-05T06:31:49.321Z,174.37
2019-05-05T06:32:49.306Z,174.37
2019-05-05T06:33:49.347Z,174.37
2019-05-05T06:34:49.291Z,174.37
2019-05-05T06:35:49.281Z,174.37
2019-05-05T06:36:49.276Z,174.37
2019-05-05T06:37:49.255Z,174.37
2019-05-05T06:38:49.246Z,174.37
2019-05-05T06:39:49.385Z,174.37
2019-05-05T06:40:49.226Z,174.37
2019-05-05T06:41:49.220Z,174.37
2019-05-05T06:42:49.206Z,174.37
2019-05-05T06:43:49.199Z,168.75
2019-05-05T06:44:49.184Z,168.75
2019-05-05T06:45:49.232Z,168.75
2019-05-05T06:46:49.172Z,168.75
2019-05-05T06:47:49.162Z,168.75
2019-05-05T06:48:49.145Z,168.75
2019-05-05T06:49:49.140Z,168.75
2019-05-05T06:50:49.125Z,168.75
2019-05-05T06:51:49.166Z,168.75
2019-05-05T06:52:49.102Z,168.75
2019-05-05T06:53:49.094Z,168.75
2019-05-05T06:54:49.081Z,168.75
2019-05-05T06:55:51.768Z,168.75
2019-05-05T06:56:49.061Z,168.75
2019-05-05T06:57:49.205Z,168.75
2019-05-05T06:58:49.043Z,168.75
2019-05-05T06:59:49.030Z,168.75
2019-05-05T07:00:49.023Z,168.75
2019-05-05T07:01:49.013Z,168.75
2019-05-05T07:02:49.002Z,168.75
2019-05-05T07:03:49.039Z,168.75
2019-05-05T07:04:48.984Z,168.75
2019-05-05T07:05:48.971Z,168.75
2019-05-05T07:06:54.204Z,168.75
2019-05-05T07:08:13.973Z,163.12
2019-05-05T07:09:14.001Z,163.12
2019-05-05T07:10:14.131Z,163.12
2019-05-05T07:11:14.538Z,163.12
2019-05-05T07:12:13.982Z,163.12
2019-05-05T07:13:14.088Z,163.12
2019-05-05T07:14:14.259Z,163.12
2019-05-05T07:16:15.026Z,163.12
2019-05-05T07:17:14.138Z,163.12
2019-05-05T07:18:14.202Z,163.12
2019-05-05T07:19:14.718Z,163.12
2019-05-05T07:20:13.750Z,163.12
2019-05-05T07:21:14.276Z,163.12
2019-05-05T07:22:14.425Z,163.12
2019-05-05T07:23:14.548Z,163.12
2019-05-05T07:24:14.523Z,163.12
2019-05-05T07:25:13.789Z,163.12
2019-05-05T07:26:14.390Z,163.12
2019-05-05T07:27:13.950Z,163.12
2019-05-05T07:28:14.696Z,163.12
2019-05-05T07:29:16.318Z,163.12
2019-05-05T07:30:13.764Z,163.12
2019-05-05T07:31:14.382Z,163.12
2019-05-05T07:32:14.168Z,163.12
2019-05-05T07:33:14.856Z,163.12
2019-05-05T07:34:13.782Z,163.12
2019-05-05T07:35:14.565Z,163.12
2019-05-05T07:36:14.617Z,163.12
2019-05-05T07:37:14.349Z,163.12
2019-05-05T07:38:13.944Z,163.12
2019-05-05T07:39:14.371Z,163.12
2019-05-05T07:40:13.637Z,163.12
2019-05-05T07:41:14.126Z,163.12
2019-05-05T07:42:13.778Z,163.12
2019-05-05T07:43:14.650Z,163.12
2019-05-05T07:44:25.771Z,163.12
2019-05-05T07:45:38.275Z,163.12
2019-05-05T07:46:38.266Z,163.12
2019-05-05T07:47:38.253Z,163.12
2019-05-05T07:48:38.245Z,163.12
2019-05-05T07:49:38.238Z,163.12
2019-05-05T07:50:38.477Z,163.12
2019-05-05T07:51:38.207Z,157.50
2019-05-05T07:52:38.198Z,157.50
2019-05-05T07:53:38.191Z,157.50
2019-05-05T07:54:38.178Z,157.50
2019-05-05T07:55:38.169Z,157.50
2019-05-05T07:56:38.209Z,157.50
2019-05-05T07:57:38.438Z,157.50
2019-05-05T07:58:38.135Z,157.50
2019-05-05T07:59:38.121Z,157.50
2019-05-05T08:00:38.114Z,157.50
2019-05-05T08:01:38.107Z,157.50
2019-05-05T08:02:38.150Z,157.50
2019-05-05T08:03:38.079Z,157.50
2019-05-05T08:04:38.067Z,157.50
2019-05-05T08:05:38.056Z,157.50
2019-05-05T08:06:38.049Z,157.50
2019-05-05T08:07:38.037Z,157.50
2019-05-05T08:08:38.179Z,157.50
2019-05-05T08:09:38.016Z,157.50
2019-05-05T08:10:38.000Z,157.50
2019-05-05T08:11:37.994Z,157.50
2019-05-05T08:12:37.981Z,157.50
2019-05-05T08:13:37.968Z,157.50
2019-05-05T08:14:38.011Z,157.50
2019-05-05T08:15:37.947Z,157.50
2019-05-05T08:16:37.936Z,157.50
2019-05-05T08:17:39.072Z,157.50
2019-05-05T08:18:37.918Z,157.50
2019-05-05T08:19:37.906Z,157.50
2019-05-05T08:20:37.997Z,157.50
2019-05-05T08:21:37.886Z,157.50
2019-05-05T08:22:37.876Z,157.50
2019-05-05T08:23:37.859Z,157.50
2019-05-05T08:24:37.859Z,157.50
2019-05-05T08:25:40.326Z,157.50
2019-05-05T08:26:38.020Z,157.50
2019-05-05T08:27:37.818Z,157.50
2019-05-05T08:28:37.809Z,157.50
2019-05-05T08:29:37.796Z,157.50
2019-05-05T08:30:37.784Z,157.50
2019-05-05T08:31:37.771Z,157.50
2019-05-05T08:32:37.813Z,157.50
2019-05-05T08:33:37.755Z,157.50
2019-05-05T08:34:37.738Z,157.50
2019-05-05T08:35:37.730Z,157.50
2019-05-05T08:36:39.393Z,157.50
2019-05-05T08:37:37.707Z,157.50
2019-05-05T08:38:37.752Z,157.50
2019-05-05T08:39:37.694Z,157.50
2019-05-05T08:40:37.677Z,157.50
2019-05-05T08:41:37.666Z,157.50
2019-05-05T08:42:37.652Z,157.50
2019-05-05T08:43:37.646Z,157.50
2019-05-05T08:44:37.781Z,157.50
2019-05-05T08:45:37.624Z,157.50
2019-05-05T08:46:37.611Z,157.50
2019-05-05T08:47:37.603Z,157.50
2019-05-05T08:48:37.592Z,157.50
2019-05-05T08:49:37.579Z,157.50
2019-05-05T08:50:37.616Z,157.50
2019-05-05T08:51:37.560Z,157.50
2019-05-05T08:52:37.545Z,157.50
2019-05-05T08:53:44.729Z,157.50
2019-05-05T08:55:04.515Z,157.50
2019-05-05T08:56:04.081Z,151.87
2019-05-05T08:57:04.223Z,151.87
2019-05-05T08:58:04.360Z,151.87
2019-05-05T08:59:03.627Z,151.87
2019-05-05T09:00:02.287Z,151.87
2019-05-05T09:01:04.400Z,151.87
2019-05-05T09:02:04.349Z,151.87
2019-05-05T09:03:03.749Z,151.87
2019-05-05T09:04:04.096Z,151.87
2019-05-05T09:05:04.140Z,151.87
2019-05-05T09:06:04.541Z,151.87
2019-05-05T09:07:04.828Z,151.87
2019-05-05T09:08:04.427Z,151.87
2019-05-05T09:09:03.862Z,151.87
2019-05-05T09:10:03.900Z,151.87
2019-05-05T09:11:04.514Z,151.87
2019-05-05T09:12:04.403Z,151.87
2019-05-05T09:13:03.770Z,151.87
2019-05-05T09:14:04.088Z,151.87
2019-05-05T09:15:04.260Z,151.87
2019-05-05T09:16:03.837Z,151.87
2019-05-05T09:17:04.267Z,151.87
2019-05-05T09:18:02.092Z,151.87
2019-05-05T09:19:04.090Z,151.87
2019-05-05T09:20:04.362Z,151.87
2019-05-05T09:21:04.209Z,151.87
2019-05-05T09:22:02.052Z,151.87
2019-05-05T09:23:03.638Z,151.87
2019-05-05T09:24:04.781Z,151.87
2019-05-05T09:25:04.144Z,151.87
2019-05-05T09:26:04.328Z,151.87
2019-05-05T09:27:03.629Z,151.87
2019-05-05T09:28:03.934Z,151.87
2019-05-05T09:29:01.978Z,151.87
2019-05-05T09:30:03.926Z,151.87
2019-05-05T09:31:04.058Z,151.87
2019-05-05T09:32:03.902Z,146.25
2019-05-05T09:33:03.577Z,146.25
2019-05-05T09:34:04.040Z,146.25
2019-05-05T09:35:01.917Z,146.25
2019-05-05T09:36:01.901Z,146.25
2019-05-05T09:37:03.650Z,146.25
2019-05-05T09:38:03.875Z,146.25
2019-05-05T09:39:01.869Z,146.25
2019-05-05T09:40:01.863Z,146.25
2019-05-05T09:41:03.805Z,146.25
2019-05-05T09:42:03.937Z,146.25
2019-05-05T09:43:03.801Z,146.25
2019-05-05T09:44:04.180Z,146.25
2019-05-05T09:45:01.807Z,146.25
2019-05-05T09:46:03.764Z,146.25
2019-05-05T09:47:04.061Z,146.25
2019-05-05T09:48:01.771Z,146.25
2019-05-05T09:49:01.759Z,146.25
2019-05-05T09:50:03.801Z,146.25
2019-05-05T09:51:01.737Z,146.25
2019-05-05T09:52:01.726Z,146.25
2019-05-05T09:53:01.720Z,146.25
2019-05-05T09:54:11.858Z,146.25
2019-05-05T09:55:26.616Z,146.25
2019-05-05T09:56:26.507Z,146.25
2019-05-05T09:57:26.490Z,146.25
2019-05-05T09:58:26.480Z,146.25
2019-05-05T09:59:26.480Z,146.25
2019-05-05T10:00:26.460Z,146.25
2019-05-05T10:01:26.600Z,146.25
2019-05-05T10:02:26.468Z,146.25
2019-05-05T10:03:26.426Z,146.25
2019-05-05T10:04:26.418Z,146.25
2019-05-05T10:05:26.406Z,146.25
2019-05-05T10:06:26.395Z,146.25
2019-05-05T10:07:26.436Z,146.25
2019-05-05T10:08:26.378Z,146.25
2019-05-05T10:09:26.369Z,146.25
2019-05-05T10:10:26.351Z,146.25
2019-05-05T10:11:26.344Z,146.25
2019-05-05T10:12:26.332Z,146.25
2019-05-05T10:13:26.371Z,146.25
2019-05-05T10:14:26.313Z,146.25
2019-05-05T10:15:26.305Z,146.25
2019-05-05T10:16:26.289Z,146.25
2019-05-05T10:17:26.287Z,146.25
2019-05-05T10:18:26.270Z,146.25
2019-05-05T10:19:26.415Z,146.25
2019-05-05T10:20:26.255Z,146.25
2019-05-05T10:21:26.245Z,140.62
2019-05-05T10:22:26.226Z,140.62
2019-05-05T10:23:26.227Z,140.62
2019-05-05T10:24:30.649Z,140.62
2019-05-05T10:25:26.297Z,140.62
2019-05-05T10:26:26.184Z,140.62
2019-05-05T10:27:26.175Z,140.62
2019-05-05T10:28:26.164Z,140.62
2019-05-05T10:29:26.161Z,140.62
2019-05-05T10:30:26.141Z,140.62
2019-05-05T10:31:26.181Z,140.62
2019-05-05T10:32:26.126Z,140.62
2019-05-05T10:33:26.114Z,140.62
2019-05-05T10:34:26.106Z,140.62
2019-05-05T10:35:26.092Z,140.62
2019-05-05T10:36:26.088Z,140.62
2019-05-05T10:37:26.471Z,140.62
2019-05-05T10:38:26.057Z,140.62
2019-05-05T10:39:26.044Z,140.62
2019-05-05T10:40:26.034Z,140.62
2019-05-05T10:41:26.027Z,140.62
2019-05-05T10:42:26.014Z,140.62
2019-05-05T10:43:26.057Z,140.62
2019-05-05T10:44:25.995Z,140.62
2019-05-05T10:45:25.983Z,140.62
2019-05-05T10:46:25.976Z,140.62
2019-05-05T10:47:25.965Z,140.62
2019-05-05T10:48:25.949Z,140.62
2019-05-05T10:49:26.046Z,140.62
2019-05-05T10:50:25.926Z,140.62
2019-05-05T10:51:25.921Z,140.62
2019-05-05T10:52:25.906Z,140.62
2019-05-05T10:53:25.899Z,140.62
2019-05-05T10:54:40.154Z,140.62
2019-05-05T10:55:50.838Z,140.62
2019-05-05T10:56:50.831Z,140.62
2019-05-05T10:57:50.818Z,140.62
2019-05-05T10:58:50.808Z,140.62
2019-05-05T10:59:50.798Z,140.62
2019-05-05T11:00:50.835Z,140.62
2019-05-05T11:01:50.774Z,140.62
2019-05-05T11:02:50.763Z,140.62
2019-05-05T11:03:50.752Z,140.62
2019-05-05T11:04:50.744Z,135.00
2019-05-05T11:05:50.733Z,135.00
2019-05-05T11:06:50.774Z,135.00
2019-05-05T11:07:50.712Z,135.00
2019-05-05T11:08:50.703Z,135.00
2019-05-05T11:09:50.691Z,135.00
2019-05-05T11:10:50.679Z,135.00
2019-05-05T11:11:50.676Z,135.00
2019-05-05T11:12:50.809Z,135.00
2019-05-05T11:13:50.648Z,135.00
2019-05-05T11:14:50.640Z,135.00
2019-05-05T11:15:50.635Z,135.00
2019-05-05T11:16:50.621Z,135.00
2019-05-05T11:17:50.605Z,135.00
2019-05-05T11:18:50.692Z,135.00
2019-05-05T11:19:50.583Z,135.00
2019-05-05T11:20:50.578Z,135.00
2019-05-05T11:21:50.563Z,135.00
2019-05-05T11:22:50.551Z,135.00
2019-05-05T11:23:50.547Z,135.00
2019-05-05T11:24:58.241Z,135.00
2019-05-05T11:25:51.622Z,135.00
2019-05-05T11:26:50.510Z,135.00
2019-05-05T11:27:50.496Z,135.00
2019-05-05T11:28:50.487Z,135.00
2019-05-05T11:29:50.482Z,135.00
2019-05-05T11:30:50.516Z,135.00
2019-05-05T11:31:50.457Z,135.00
2019-05-05T11:32:50.442Z,135.00
2019-05-05T11:33:50.431Z,135.00
2019-05-05T11:34:50.423Z,135.00
2019-05-05T11:35:50.417Z,135.00
2019-05-05T11:36:50.499Z,135.00
2019-05-05T11:37:50.388Z,135.00
2019-05-05T11:38:50.384Z,129.37
2019-05-05T11:39:50.369Z,129.37
2019-05-05T11:40:50.363Z,129.37
2019-05-05T11:41:50.349Z,129.37
2019-05-05T11:43:50.578Z,129.37
2019-05-05T11:44:50.317Z,129.37
2019-05-05T11:45:50.306Z,129.37
2019-05-05T11:46:50.295Z,129.37
2019-05-05T11:47:50.286Z,129.37
2019-05-05T11:48:50.276Z,129.37
2019-05-05T11:49:50.361Z,129.37
2019-05-05T11:50:50.260Z,129.37
2019-05-05T11:51:50.240Z,129.37
2019-05-05T11:52:50.232Z,129.37
2019-05-05T11:53:50.220Z,129.37
2019-05-05T11:54:50.211Z,129.37
2019-05-05T11:55:50.246Z,129.37
2019-05-05T11:56:50.189Z,129.37
2019-05-05T11:57:50.176Z,129.37
2019-05-05T11:58:50.164Z,129.37
2019-05-05T11:59:50.156Z,123.75
2019-05-05T12:00:50.144Z,123.75
2019-05-05T12:01:50.287Z,123.75
2019-05-05T12:02:50.124Z,123.75
2019-05-05T12:03:50.112Z,123.75
2019-05-05T12:04:50.102Z,123.75
2019-05-05T12:05:50.090Z,123.75
2019-05-05T12:06:50.082Z,123.75
2019-05-05T12:07:50.118Z,123.75
2019-05-05T12:08:50.059Z,123.75
2019-05-05T12:09:50.052Z,123.75
2019-05-05T12:10:50.035Z,123.75
2019-05-05T12:11:50.026Z,123.75
2019-05-05T12:12:50.116Z,123.75
2019-05-05T12:13:50.004Z,123.75
2019-05-05T12:14:49.997Z,123.75
2019-05-05T12:15:49.983Z,118.12
2019-05-05T12:16:49.973Z,118.12
2019-05-05T12:17:50.111Z,118.12
2019-05-05T12:18:49.951Z,118.12
2019-05-05T12:19:49.942Z,118.12
2019-05-05T12:20:49.929Z,118.12
2019-05-05T12:21:49.922Z,118.12
2019-05-05T12:22:49.911Z,118.12
2019-05-05T12:23:50.001Z,118.12
2019-05-05T12:24:49.891Z,118.12
2019-05-05T12:25:49.879Z,118.12
2019-05-05T12:26:49.873Z,118.12
2019-05-05T12:27:49.854Z,118.12
2019-05-05T12:28:49.845Z,118.12
2019-05-05T12:29:49.935Z,112.50
2019-05-05T12:30:49.826Z,112.50
2019-05-05T12:31:49.814Z,112.50
2019-05-05T12:32:49.801Z,112.50
2019-05-05T12:33:49.791Z,112.50
2019-05-05T12:34:49.788Z,112.50
2019-05-05T12:35:49.919Z,112.50
2019-05-05T12:36:49.760Z,112.50
2019-05-05T12:37:49.748Z,112.50
2019-05-05T12:38:49.735Z,112.50
2019-05-05T12:39:49.725Z,112.50
2019-05-05T12:40:49.715Z,112.50
2019-05-05T12:41:49.806Z,106.87
2019-05-05T12:42:49.694Z,106.87
2019-05-05T12:43:49.690Z,106.87
2019-05-05T12:44:49.670Z,106.87
2019-05-05T12:45:49.663Z,106.87
2019-05-05T12:46:49.656Z,106.87
2019-05-05T12:47:49.688Z,106.87
2019-05-05T12:48:49.631Z,106.87
2019-05-05T12:49:49.623Z,106.87
2019-05-05T12:50:49.607Z,101.25
2019-05-05T12:51:49.601Z,101.25
2019-05-05T12:52:49.587Z,101.25
2019-05-05T12:53:49.724Z,101.25
2019-05-05T12:54:49.567Z,101.25
2019-05-05T12:55:49.559Z,101.25
2019-05-05T12:56:49.544Z,101.25
2019-05-05T12:57:49.533Z,101.25
2019-05-05T12:58:49.522Z,95.62
2019-05-05T12:59:49.565Z,95.62
2019-05-05T13:00:49.501Z,95.62
2019-05-05T13:01:49.486Z,95.62
2019-05-05T13:02:49.481Z,95.62
2019-05-05T13:03:49.468Z,95.62
2019-05-05T13:04:49.457Z,95.62
2019-05-05T13:05:49.547Z,95.62
2019-05-05T13:06:49.440Z,90.00
2019-05-05T13:07:49.425Z,90.00
2019-05-05T13:08:49.415Z,90.00
2019-05-05T13:09:49.404Z,90.00
2019-05-05T13:10:49.399Z,90.00
2019-05-05T13:11:49.431Z,90.00
2019-05-05T13:12:49.374Z,84.37
2019-05-05T13:13:49.361Z,84.37
2019-05-05T13:14:49.350Z,84.37
2019-05-05T13:15:49.344Z,84.37
2019-05-05T13:16:53.037Z,84.37
2019-05-05T13:17:49.317Z,84.37
2019-05-05T13:18:49.306Z,78.75
2019-05-05T13:19:49.296Z,78.75
2019-05-05T13:20:49.283Z,78.75
2019-05-05T13:21:49.278Z,78.75
2019-05-05T13:22:49.313Z,78.75
2019-05-05T13:23:49.254Z,78.75
2019-05-05T13:24:49.240Z,73.12
2019-05-05T13:25:55.948Z,73.12
2019-05-05T13:27:19.451Z,73.12
2019-05-05T13:28:14.640Z,73.12
2019-05-05T13:29:14.093Z,73.12
2019-05-05T13:30:14.008Z,67.50
2019-05-05T13:31:14.062Z,67.50
2019-05-05T13:32:14.270Z,67.50
2019-05-05T13:33:14.225Z,67.50
2019-05-05T13:34:14.208Z,67.50
2019-05-05T13:35:14.431Z,61.87
2019-05-05T13:36:13.947Z,61.87
2019-05-05T13:37:14.161Z,61.87
2019-05-05T13:38:14.559Z,61.87
2019-05-05T13:39:14.525Z,56.25
2019-05-05T13:40:13.993Z,56.25
2019-05-05T13:41:13.883Z,56.25
2019-05-05T13:42:13.983Z,56.25
2019-05-05T13:43:14.509Z,56.25
2019-05-05T13:44:14.856Z,50.62
2019-05-05T13:45:14.562Z,50.62
2019-05-05T13:46:14.119Z,50.62
2019-05-05T13:47:13.822Z,50.62
2019-05-05T13:48:14.112Z,45.00
2019-05-05T13:49:13.798Z,45.00
2019-05-05T13:50:14.212Z,45.00
2019-05-05T13:51:14.748Z,45.00
2019-05-05T13:52:14.031Z,39.37
2019-05-05T13:53:14.411Z,39.37